Huntfield Airfield

AU-0050 · South Australia, 澳大利亚

METAR AU-0050 · Huntfield Airfield

13 六月 03:30 LT
38m
使用的METAR站距离机场25 km。
罗盘
风向 的 Huntfield Airfield 17/35
风: 0 kt, 0 beaufort


改变
0 ft 1.000 2.000 3.000 4.000 5.000
CAVOK
METAR YPAD 121800Z 00000KT CAVOK 10/08 Q1021 OVC150

METAR Huntfield Airfield - AU-0050

Huntfield Airfield是,澳大利亚中的小机场。 该机场位于纬度-35,17154和经度138,49412。 该机场有一条跑道: 17/35. 这个机场没有ICAO代码,我们使用AU-0050作为参考。 机场在Melbourne FIR中。

该航空气象观测是针对阿德萊德機場在2024年6月13日 03:30, 当地时间进行的。

机场观察

可变方向的风很小或没有风。

天气为CAVOK。这意味着在5.000 ft或MSA(最低安全高度)以下(以较高者为准)以下没有云。这也意味着没有观测到积雨云或高耸的积云,可见度为10 km 或者更多或更高。此外,不会有雾,降雨或其他重要天气。

温度和风寒是10 °C。 露点为8 °C,相对湿度为88%。 海平面上的气压为1021 hPa (QNH)。

白天

今天,太阳从07:21升起,在17:10降落。 这适用于Huntfield Airfield,世界夏令时可能有所不同。 当地时间与世界标准时间之间的时差为+9 小时 30 分钟。 夏令时目前正在进行中。

公司介绍

我们没有关于这个机场的公司信息。

体会

到Vliegles.nl去找飞行课程,跳伞和其他飞行体验。 浏览页面,了解Huntfield Airfield附近所有可用的活动。 你也可以使用搜索功能来寻找你所在地附近的特定飞行课程、跳伞或其他飞行体验。

跑道

Id 标题 侧风 逆风 侧风 %
17/35 182°-002°

逆风成分最大的方向会被突出显示,并用于横风计算。 这并不一定意味着这个方向在使用。

温度 & 天气

温度 10 °C
露点 8 °C
相对湿度 88%
Kp-index 0 (0-9)

白天

日出
07:20 (3:12)
中午
12:15
日落
17:10

小工具

你想在你的网站上有一个关于Huntfield Airfield的当前航空天气(METAR)的小部件吗?

显示HTML代码
报告变更